createdAt,value
2023-01-28T00:00:48.528Z,0.00
2023-01-28T00:01:48.541Z,0.00
2023-01-28T00:02:48.591Z,0.00
2023-01-28T00:03:48.638Z,0.00
2023-01-28T00:04:48.672Z,0.00
2023-01-28T00:05:48.681Z,0.00
2023-01-28T00:06:48.720Z,0.00
2023-01-28T00:07:48.708Z,0.00
2023-01-28T00:08:48.739Z,0.00
2023-01-28T00:09:48.748Z,0.00
2023-01-28T00:10:48.800Z,0.00
2023-01-28T00:11:48.812Z,0.00
2023-01-28T00:12:48.820Z,0.00
2023-01-28T00:13:48.848Z,0.00
2023-01-28T00:14:48.850Z,0.00
2023-01-28T00:15:48.889Z,0.00
2023-01-28T00:16:48.891Z,0.00
2023-01-28T00:17:48.912Z,0.00
2023-01-28T00:18:48.937Z,0.00
2023-01-28T00:19:48.943Z,0.00
2023-01-28T00:20:49.009Z,0.00
2023-01-28T00:21:49.033Z,0.00
2023-01-28T00:22:51.765Z,0.00
2023-01-28T00:23:49.082Z,0.00
2023-01-28T00:24:49.092Z,0.00
2023-01-28T00:25:49.093Z,0.00
2023-01-28T00:26:49.102Z,0.00
2023-01-28T00:27:49.104Z,0.00
2023-01-28T00:28:49.124Z,0.00
2023-01-28T00:29:49.123Z,0.00
2023-01-28T00:30:49.172Z,0.00
2023-01-28T00:31:49.245Z,0.00
2023-01-28T00:32:49.203Z,0.00
2023-01-28T00:33:49.202Z,0.00
2023-01-28T00:34:49.214Z,0.00
2023-01-28T00:35:49.210Z,0.00
2023-01-28T00:36:49.205Z,0.00
2023-01-28T00:37:49.215Z,0.00
2023-01-28T00:38:49.224Z,0.00
2023-01-28T00:39:49.236Z,0.00
2023-01-28T00:40:49.234Z,0.00
2023-01-28T00:41:49.244Z,0.00
2023-01-28T00:42:49.283Z,0.00
2023-01-28T00:43:49.286Z,0.00
2023-01-28T00:44:49.285Z,0.00
2023-01-28T00:45:50.458Z,0.00
2023-01-28T00:46:49.305Z,0.00
2023-01-28T00:47:49.327Z,0.00
2023-01-28T00:48:49.360Z,0.00
2023-01-28T00:49:49.354Z,0.00
2023-01-28T00:50:49.357Z,0.00
2023-01-28T00:51:49.365Z,0.00
2023-01-28T00:52:49.366Z,0.00
2023-01-28T00:53:49.399Z,0.00
2023-01-28T00:54:49.398Z,0.00
2023-01-28T00:55:49.402Z,0.00
2023-01-28T00:56:49.396Z,0.00
2023-01-28T00:57:49.399Z,0.00
2023-01-28T00:58:49.412Z,0.00
2023-01-28T00:59:49.417Z,0.00
2023-01-28T01:00:49.438Z,0.00
2023-01-28T01:01:49.484Z,0.00
2023-01-28T01:02:49.577Z,0.00
2023-01-28T01:03:49.518Z,0.00
2023-01-28T01:04:49.536Z,0.00
2023-01-28T01:05:49.568Z,0.00
2023-01-28T01:06:49.569Z,0.00
2023-01-28T01:07:49.568Z,0.00
2023-01-28T01:08:49.557Z,0.00
2023-01-28T01:09:49.564Z,0.00
2023-01-28T01:10:49.556Z,0.00
2023-01-28T01:11:49.581Z,0.00
2023-01-28T01:12:49.574Z,0.00
2023-01-28T01:13:49.586Z,0.00
2023-01-28T01:14:49.580Z,0.00
2023-01-28T01:15:49.672Z,0.00
2023-01-28T01:16:49.611Z,0.00
2023-01-28T01:17:49.600Z,0.00
2023-01-28T01:18:49.632Z,0.00
2023-01-28T01:19:49.639Z,0.00
2023-01-28T01:20:50.316Z,0.00
2023-01-28T01:21:49.691Z,0.00
2023-01-28T01:22:49.729Z,0.00
2023-01-28T01:23:49.734Z,0.00
2023-01-28T01:24:49.770Z,0.00
2023-01-28T01:25:49.790Z,0.00
2023-01-28T01:26:49.797Z,0.00
2023-01-28T01:27:49.811Z,0.00
2023-01-28T01:28:49.812Z,0.00
2023-01-28T01:29:49.821Z,0.00
2023-01-28T01:30:49.878Z,0.00
2023-01-28T01:31:49.908Z,0.00
2023-01-28T01:32:49.902Z,0.00
2023-01-28T01:33:49.914Z,0.00
2023-01-28T01:34:49.943Z,0.00
2023-01-28T01:35:49.944Z,0.00
2023-01-28T01:36:49.952Z,0.00
2023-01-28T01:37:49.967Z,0.00
2023-01-28T01:38:49.988Z,0.00
2023-01-28T01:39:50.061Z,0.00
2023-01-28T01:40:50.012Z,0.00
2023-01-28T01:41:50.035Z,0.00
2023-01-28T01:42:50.023Z,0.00
2023-01-28T01:43:50.755Z,0.00
2023-01-28T01:44:50.474Z,0.00
2023-01-28T01:45:50.258Z,0.00
2023-01-28T01:46:50.900Z,0.00
2023-01-28T01:47:50.229Z,0.00
2023-01-28T01:48:50.906Z,0.00
2023-01-28T01:49:51.105Z,0.00
2023-01-28T01:50:51.265Z,0.00
2023-01-28T01:51:50.497Z,0.00
2023-01-28T01:52:50.486Z,0.00
2023-01-28T01:53:50.462Z,0.00
2023-01-28T01:54:50.499Z,0.00
2023-01-28T01:55:50.475Z,0.00
2023-01-28T01:56:51.586Z,0.00
2023-01-28T01:57:51.447Z,0.00
2023-01-28T01:58:51.167Z,0.00
2023-01-28T01:59:50.637Z,0.00
2023-01-28T02:00:51.856Z,0.00
2023-01-28T02:01:51.654Z,0.00
2023-01-28T02:02:50.847Z,0.00
2023-01-28T02:03:50.909Z,0.00
2023-01-28T02:04:51.767Z,0.00
2023-01-28T02:05:51.786Z,0.00
2023-01-28T02:06:50.924Z,0.00
2023-01-28T02:07:50.875Z,0.00
2023-01-28T02:08:50.915Z,0.00
2023-01-28T02:09:50.919Z,0.00
2023-01-28T02:10:50.948Z,0.00
2023-01-28T02:11:50.999Z,0.00
2023-01-28T02:12:51.047Z,0.00
2023-01-28T02:13:51.819Z,0.00
2023-01-28T02:14:51.020Z,0.00
2023-01-28T02:15:51.099Z,0.00
2023-01-28T02:16:51.102Z,0.00
2023-01-28T02:17:51.067Z,0.00
2023-01-28T02:18:51.097Z,0.00
2023-01-28T02:19:51.114Z,0.00
2023-01-28T02:20:51.179Z,0.00
2023-01-28T02:21:51.196Z,0.00
2023-01-28T02:22:51.191Z,0.00
2023-01-28T02:23:51.250Z,0.00
2023-01-28T02:24:51.275Z,0.00
2023-01-28T02:25:51.269Z,0.00
2023-01-28T02:26:51.280Z,0.00
2023-01-28T02:27:51.283Z,0.00
2023-01-28T02:28:51.283Z,0.00
2023-01-28T02:29:51.316Z,0.00
2023-01-28T02:30:51.402Z,0.00
2023-01-28T02:31:51.583Z,0.00
2023-01-28T02:32:51.340Z,0.00
2023-01-28T02:33:51.332Z,0.00
2023-01-28T02:34:51.345Z,0.00
2023-01-28T02:35:51.350Z,0.00
2023-01-28T02:36:51.392Z,0.00
2023-01-28T02:37:51.391Z,0.00
2023-01-28T02:38:51.393Z,0.00
2023-01-28T02:39:51.393Z,0.00
2023-01-28T02:40:51.403Z,0.00
2023-01-28T02:41:52.393Z,0.00
2023-01-28T02:42:51.516Z,0.00
2023-01-28T02:43:52.213Z,0.00
2023-01-28T02:44:51.493Z,0.00
2023-01-28T02:45:51.855Z,0.00
2023-01-28T02:46:52.505Z,0.00
2023-01-28T02:47:52.374Z,0.00
2023-01-28T02:48:51.732Z,0.00
2023-01-28T02:49:51.746Z,0.00
2023-01-28T02:50:51.755Z,0.00
2023-01-28T02:51:51.909Z,0.00
2023-01-28T02:52:51.835Z,0.00
2023-01-28T02:53:51.837Z,0.00
2023-01-28T02:54:51.845Z,0.00
2023-01-28T02:55:52.866Z,0.00
2023-01-28T02:56:53.112Z,0.00
2023-01-28T02:57:51.957Z,0.00
2023-01-28T02:58:51.875Z,0.00
2023-01-28T02:59:51.885Z,0.00
2023-01-28T03:00:51.901Z,0.00
2023-01-28T03:01:51.952Z,0.00
2023-01-28T03:02:52.048Z,0.00
2023-01-28T03:03:52.036Z,0.00
2023-01-28T03:04:52.049Z,0.00
2023-01-28T03:05:52.058Z,0.00
2023-01-28T03:06:52.065Z,0.00
2023-01-28T03:07:52.066Z,0.00
2023-01-28T03:08:52.087Z,0.00
2023-01-28T03:09:52.087Z,0.00
2023-01-28T03:10:52.107Z,0.00
2023-01-28T03:11:52.115Z,0.00
2023-01-28T03:12:52.129Z,0.00
2023-01-28T03:13:52.142Z,0.00
2023-01-28T03:14:52.138Z,0.00
2023-01-28T03:15:52.166Z,0.00
2023-01-28T03:16:52.192Z,0.00
2023-01-28T03:17:52.198Z,0.00
2023-01-28T03:18:52.198Z,0.00
2023-01-28T03:19:52.199Z,0.00
2023-01-28T03:20:52.208Z,0.00
2023-01-28T03:21:52.236Z,0.00
2023-01-28T03:22:52.274Z,0.00
2023-01-28T03:23:52.305Z,0.00
2023-01-28T03:24:52.323Z,0.00
2023-01-28T03:25:52.320Z,0.00
2023-01-28T03:26:52.339Z,0.00
2023-01-28T03:27:52.339Z,0.00
2023-01-28T03:28:52.349Z,0.00
2023-01-28T03:29:52.396Z,0.00
2023-01-28T03:30:52.432Z,0.00
2023-01-28T03:31:52.458Z,0.00
2023-01-28T03:32:52.470Z,0.00
2023-01-28T03:33:52.503Z,0.00
2023-01-28T03:34:52.527Z,0.00
2023-01-28T03:35:52.560Z,0.00
2023-01-28T03:36:52.540Z,0.00
2023-01-28T03:37:52.549Z,0.00
2023-01-28T03:38:52.566Z,0.00
2023-01-28T03:39:52.571Z,0.00
2023-01-28T03:40:52.629Z,0.00
2023-01-28T03:41:52.740Z,0.00
2023-01-28T03:42:52.682Z,0.00
2023-01-28T03:43:52.644Z,0.00
2023-01-28T03:44:52.650Z,0.00
2023-01-28T03:45:53.600Z,0.00
2023-01-28T03:46:52.745Z,0.00
2023-01-28T03:47:52.715Z,0.00
2023-01-28T03:48:52.729Z,0.00
2023-01-28T03:49:52.758Z,0.00
2023-01-28T03:50:52.761Z,0.00
2023-01-28T03:51:53.701Z,0.00
2023-01-28T03:52:52.814Z,0.00
2023-01-28T03:53:52.826Z,0.00
2023-01-28T03:54:52.857Z,0.00
2023-01-28T03:55:52.825Z,0.00
2023-01-28T03:56:52.843Z,0.00
2023-01-28T03:57:52.854Z,0.00
2023-01-28T03:58:52.880Z,0.00
2023-01-28T03:59:52.925Z,0.00
2023-01-28T04:00:52.934Z,0.00
2023-01-28T04:01:52.974Z,0.00
2023-01-28T04:02:53.073Z,0.00
2023-01-28T04:03:53.025Z,0.00
2023-01-28T04:04:53.026Z,0.00
2023-01-28T04:05:53.035Z,0.00
2023-01-28T04:06:53.045Z,0.00
2023-01-28T04:07:53.065Z,0.00
2023-01-28T04:08:53.164Z,0.00
2023-01-28T04:09:53.076Z,0.00
2023-01-28T04:10:53.086Z,0.00
2023-01-28T04:11:53.095Z,0.00
2023-01-28T04:12:53.096Z,0.00
2023-01-28T04:13:53.121Z,0.00
2023-01-28T04:14:53.137Z,0.00
2023-01-28T04:15:53.195Z,0.00
2023-01-28T04:16:53.145Z,0.00
2023-01-28T04:17:53.153Z,0.00
2023-01-28T04:18:53.158Z,0.00
2023-01-28T04:19:53.167Z,0.00
2023-01-28T04:20:53.196Z,0.00
2023-01-28T04:21:53.192Z,0.00
2023-01-28T04:22:53.208Z,0.00
2023-01-28T04:23:54.100Z,0.00
2023-01-28T04:24:53.277Z,0.00
2023-01-28T04:25:53.296Z,0.00
2023-01-28T04:26:55.499Z,0.00
2023-01-28T04:27:53.299Z,0.00
2023-01-28T04:28:53.309Z,0.00
2023-01-28T04:29:53.324Z,0.00
2023-01-28T04:30:53.378Z,0.00
2023-01-28T04:31:53.326Z,0.00
2023-01-28T04:32:53.321Z,0.00
2023-01-28T04:33:53.331Z,0.00
2023-01-28T04:34:53.345Z,0.00
2023-01-28T04:35:53.360Z,0.00
2023-01-28T04:36:53.379Z,0.00
2023-01-28T04:37:53.397Z,0.00
2023-01-28T04:38:53.400Z,0.00
2023-01-28T04:39:53.402Z,0.00
2023-01-28T04:40:53.442Z,0.00
2023-01-28T04:41:54.101Z,0.00
2023-01-28T04:42:53.515Z,0.00
2023-01-28T04:43:53.502Z,0.00
2023-01-28T04:44:53.492Z,0.00
2023-01-28T04:45:54.182Z,0.00
2023-01-28T04:46:53.623Z,0.00
2023-01-28T04:47:53.617Z,0.00
2023-01-28T04:48:53.690Z,0.00
2023-01-28T04:49:53.743Z,0.00
2023-01-28T04:50:54.641Z,0.00
2023-01-28T04:51:54.715Z,0.00
2023-01-28T04:52:54.587Z,0.00
2023-01-28T04:53:53.834Z,0.00
2023-01-28T04:54:53.901Z,0.00
2023-01-28T04:55:56.504Z,0.00
2023-01-28T04:56:53.947Z,0.00
2023-01-28T04:57:54.731Z,0.00
2023-01-28T04:58:54.035Z,0.00
2023-01-28T04:59:54.244Z,0.00
2023-01-28T05:00:54.964Z,0.00
2023-01-28T05:01:54.141Z,0.00
2023-01-28T05:02:54.104Z,0.00
2023-01-28T05:03:54.034Z,0.00
2023-01-28T05:04:54.085Z,0.00
2023-01-28T05:05:54.113Z,0.00
2023-01-28T05:06:54.119Z,0.00
2023-01-28T05:07:54.125Z,0.00
2023-01-28T05:08:54.136Z,0.00
2023-01-28T05:09:54.127Z,0.00
2023-01-28T05:10:54.149Z,0.00
2023-01-28T05:11:54.178Z,0.00
2023-01-28T05:12:54.184Z,0.00
2023-01-28T05:13:54.185Z,0.00
2023-01-28T05:14:54.197Z,0.00
2023-01-28T05:15:54.213Z,0.00
2023-01-28T05:16:54.217Z,0.00
2023-01-28T05:17:54.225Z,0.00
2023-01-28T05:18:54.226Z,0.00
2023-01-28T05:19:54.236Z,0.00
2023-01-28T05:20:54.264Z,0.00
2023-01-28T05:21:54.252Z,0.00
2023-01-28T05:22:54.247Z,0.00
2023-01-28T05:23:54.358Z,0.00
2023-01-28T05:24:54.274Z,0.00
2023-01-28T05:25:54.270Z,0.00
2023-01-28T05:26:54.270Z,0.00
2023-01-28T05:27:54.291Z,0.00
2023-01-28T05:28:54.292Z,0.00
2023-01-28T05:29:54.310Z,0.00
2023-01-28T05:30:54.421Z,0.00
2023-01-28T05:31:54.370Z,0.00
2023-01-28T05:32:54.379Z,0.00
2023-01-28T05:33:54.389Z,0.00
2023-01-28T05:34:54.547Z,0.00
2023-01-28T05:35:54.433Z,0.00
2023-01-28T05:36:54.442Z,0.00
2023-01-28T05:37:54.472Z,0.00
2023-01-28T05:38:54.470Z,0.00
2023-01-28T05:39:54.470Z,0.00
2023-01-28T05:40:54.474Z,0.00
2023-01-28T05:41:54.500Z,0.00
2023-01-28T05:42:54.532Z,0.00
2023-01-28T05:43:54.560Z,0.00
2023-01-28T05:44:54.585Z,0.00
2023-01-28T05:45:54.772Z,0.00
2023-01-28T05:46:54.656Z,0.00
2023-01-28T05:47:54.734Z,0.00
2023-01-28T05:48:54.662Z,0.00
2023-01-28T05:49:54.719Z,0.00
2023-01-28T05:50:54.773Z,0.00
2023-01-28T05:51:54.848Z,0.00
2023-01-28T05:52:55.781Z,0.00
2023-01-28T05:53:56.572Z,0.00
2023-01-28T05:54:54.902Z,0.00
2023-01-28T05:55:54.907Z,0.00
2023-01-28T05:56:54.937Z,0.00
2023-01-28T05:57:54.959Z,0.00
2023-01-28T05:58:55.010Z,0.00
2023-01-28T05:59:55.076Z,0.00
2023-01-28T06:00:55.078Z,0.00
2023-01-28T06:01:55.101Z,0.00
2023-01-28T06:02:55.093Z,0.00
2023-01-28T06:03:55.106Z,0.00
2023-01-28T06:04:55.161Z,0.00
2023-01-28T06:05:55.143Z,0.00
2023-01-28T06:06:55.204Z,0.00
2023-01-28T06:07:55.214Z,0.00
2023-01-28T06:08:55.242Z,0.00
2023-01-28T06:09:55.285Z,0.00
2023-01-28T06:10:55.294Z,0.00
2023-01-28T06:11:55.361Z,0.00
2023-01-28T06:12:57.236Z,0.00
2023-01-28T06:13:55.623Z,0.00
2023-01-28T06:14:55.399Z,0.00
2023-01-28T06:15:55.438Z,0.00
2023-01-28T06:16:55.465Z,0.00
2023-01-28T06:17:55.529Z,0.00
2023-01-28T06:18:56.530Z,0.00
2023-01-28T06:19:56.290Z,0.00
2023-01-28T06:20:55.570Z,0.00
2023-01-28T06:21:55.615Z,0.00
2023-01-28T06:22:56.489Z,0.00
2023-01-28T06:23:55.701Z,0.00
2023-01-28T06:24:55.756Z,0.00
2023-01-28T06:25:55.794Z,0.00
2023-01-28T06:26:55.824Z,0.00
2023-01-28T06:27:55.841Z,0.00
2023-01-28T06:28:55.850Z,0.00
2023-01-28T06:29:55.894Z,0.00
2023-01-28T06:30:55.926Z,0.00
2023-01-28T06:31:56.012Z,0.00
2023-01-28T06:32:56.050Z,0.00
2023-01-28T06:33:56.068Z,0.00
2023-01-28T06:34:56.093Z,0.00
2023-01-28T06:35:56.101Z,0.00
2023-01-28T06:36:56.151Z,0.00
2023-01-28T06:37:56.161Z,0.00
2023-01-28T06:38:56.192Z,0.00
2023-01-28T06:39:56.193Z,0.00
2023-01-28T06:40:56.325Z,4.00
2023-01-28T06:41:56.240Z,4.00
2023-01-28T06:42:56.247Z,0.00
2023-01-28T06:43:56.245Z,4.00
2023-01-28T06:44:56.250Z,0.00
2023-01-28T06:45:56.260Z,4.00
2023-01-28T06:46:56.270Z,4.00
2023-01-28T06:47:56.273Z,4.00
2023-01-28T06:48:56.279Z,8.00
2023-01-28T06:49:56.289Z,8.00
2023-01-28T06:50:56.359Z,8.00
2023-01-28T06:51:56.372Z,8.00
2023-01-28T06:52:56.423Z,12.00
2023-01-28T06:53:56.444Z,12.00
2023-01-28T06:54:56.480Z,12.00
2023-01-28T06:55:56.524Z,16.00
2023-01-28T06:56:56.562Z,20.00
2023-01-28T06:57:56.587Z,20.00
2023-01-28T06:58:56.642Z,24.00
2023-01-28T06:59:56.683Z,24.00
2023-01-28T07:00:56.727Z,32.00
2023-01-28T07:01:56.794Z,40.00
2023-01-28T07:02:56.808Z,36.00
2023-01-28T07:03:56.859Z,48.00
2023-01-28T07:04:56.885Z,52.00
2023-01-28T07:05:56.916Z,60.00
2023-01-28T07:06:56.955Z,64.00
2023-01-28T07:07:56.988Z,76.00
2023-01-28T07:08:57.030Z,72.00
2023-01-28T07:09:57.076Z,84.00
2023-01-28T07:10:57.093Z,84.00
2023-01-28T07:11:57.146Z,104.00
2023-01-28T07:12:57.186Z,100.00
2023-01-28T07:13:57.257Z,116.00
2023-01-28T07:14:57.269Z,124.00
2023-01-28T07:15:57.289Z,124.00
2023-01-28T07:16:57.328Z,140.00
2023-01-28T07:17:57.373Z,144.00
2023-01-28T07:18:57.416Z,148.00
2023-01-28T07:19:57.453Z,152.00
2023-01-28T07:20:57.486Z,168.00
2023-01-28T07:21:57.520Z,164.00
2023-01-28T07:22:57.530Z,184.00
2023-01-28T07:23:57.574Z,196.00
2023-01-28T07:24:57.598Z,188.00
2023-01-28T07:25:57.627Z,216.00
2023-01-28T07:26:57.651Z,220.00
2023-01-28T07:27:57.673Z,232.00
2023-01-28T07:28:57.689Z,244.00
2023-01-28T07:29:57.700Z,260.00
2023-01-28T07:30:57.808Z,256.00
2023-01-28T07:31:57.839Z,276.00
2023-01-28T07:32:57.808Z,284.00
2023-01-28T07:33:57.840Z,316.00
2023-01-28T07:34:57.878Z,316.00
2023-01-28T07:35:57.927Z,348.00
2023-01-28T07:36:57.970Z,340.00
2023-01-28T07:37:58.018Z,360.00
2023-01-28T07:38:58.047Z,356.00
2023-01-28T07:39:58.100Z,368.00
2023-01-28T07:40:58.137Z,372.00
2023-01-28T07:41:58.192Z,408.00
2023-01-28T07:42:58.282Z,428.00
2023-01-28T07:43:58.272Z,476.00
2023-01-28T07:44:58.970Z,492.00
2023-01-28T07:45:58.290Z,492.00
2023-01-28T07:46:58.387Z,520.00
2023-01-28T07:47:58.446Z,540.00
2023-01-28T07:48:58.459Z,596.00
2023-01-28T07:49:58.510Z,580.00
2023-01-28T07:50:58.532Z,612.00
2023-01-28T07:51:58.563Z,632.00
2023-01-28T07:52:58.608Z,656.00
2023-01-28T07:53:58.600Z,692.00
2023-01-28T07:54:58.602Z,736.00
2023-01-28T07:55:58.583Z,780.00
2023-01-28T07:56:58.645Z,772.00
2023-01-28T07:57:58.673Z,820.00
2023-01-28T07:58:58.716Z,900.00
2023-01-28T07:59:58.756Z,908.00
2023-01-28T08:00:58.790Z,924.00
2023-01-28T08:01:58.833Z,880.00
2023-01-28T08:02:58.900Z,984.00
2023-01-28T08:03:58.950Z,940.00
2023-01-28T08:04:59.013Z,1024.00
2023-01-28T08:05:58.924Z,1048.00
2023-01-28T08:07:00.846Z,964.00
2023-01-28T08:07:59.005Z,1092.00
2023-01-28T08:08:58.993Z,1152.00
2023-01-28T08:09:58.994Z,1100.00
2023-01-28T08:10:59.124Z,1124.00
2023-01-28T08:11:59.063Z,1072.00
2023-01-28T08:12:59.107Z,1196.00
2023-01-28T08:13:59.147Z,1132.00
2023-01-28T08:14:59.203Z,1280.00
2023-01-28T08:15:59.264Z,1332.00
2023-01-28T08:16:59.222Z,1376.00
2023-01-28T08:17:59.214Z,1380.00
2023-01-28T08:18:59.233Z,1380.00
2023-01-28T08:19:59.291Z,1432.00
2023-01-28T08:21:01.234Z,1488.00
2023-01-28T08:21:59.448Z,1484.00
2023-01-28T08:22:59.405Z,1400.00
2023-01-28T08:23:59.487Z,1592.00
2023-01-28T08:24:59.510Z,1568.00
2023-01-28T08:25:59.512Z,1624.00
2023-01-28T08:26:59.568Z,1820.00
2023-01-28T08:27:59.627Z,1772.00
2023-01-28T08:28:59.671Z,1888.00
2023-01-28T08:29:59.724Z,1760.00
2023-01-28T08:30:59.840Z,1908.00
2023-01-28T08:31:59.787Z,1888.00
2023-01-28T08:32:59.794Z,1784.00
2023-01-28T08:34:02.076Z,1864.00
2023-01-28T08:34:59.908Z,1672.00
2023-01-28T08:35:59.977Z,1816.00
2023-01-28T08:37:00.037Z,1792.00
2023-01-28T08:38:00.096Z,1788.00
2023-01-28T08:39:00.134Z,1864.00
2023-01-28T08:40:00.144Z,2056.00
2023-01-28T08:41:00.194Z,1920.00
2023-01-28T08:42:00.257Z,2036.00
2023-01-28T08:43:00.308Z,1944.00
2023-01-28T08:44:00.410Z,2160.00
2023-01-28T08:45:00.423Z,1856.00
2023-01-28T08:46:00.509Z,1744.00
2023-01-28T08:47:00.494Z,1572.00
2023-01-28T08:48:00.488Z,1536.00
2023-01-28T08:49:00.479Z,1612.00
2023-01-28T08:50:00.558Z,1820.00
2023-01-28T08:51:00.581Z,2000.00
2023-01-28T08:52:00.559Z,2124.00
2023-01-28T08:53:00.644Z,2080.00
2023-01-28T08:54:00.636Z,2128.00
2023-01-28T08:55:00.699Z,2112.00
2023-01-28T08:56:00.693Z,2184.00
2023-01-28T08:57:00.742Z,2264.00
2023-01-28T08:58:00.807Z,2148.00
2023-01-28T08:59:00.871Z,2200.00
2023-01-28T09:00:00.938Z,2088.00
2023-01-28T09:01:01.002Z,2160.00
2023-01-28T09:02:00.986Z,2108.00
2023-01-28T09:03:01.004Z,2192.00
2023-01-28T09:04:01.082Z,2120.00
2023-01-28T09:05:01.092Z,2252.00
2023-01-28T09:06:01.093Z,2208.00
2023-01-28T09:07:01.162Z,2132.00
2023-01-28T09:08:01.183Z,2160.00
2023-01-28T09:09:01.175Z,2232.00
2023-01-28T09:10:01.253Z,2312.00
2023-01-28T09:11:01.282Z,2368.00
2023-01-28T09:12:01.319Z,2592.00
2023-01-28T09:13:01.313Z,2616.00
2023-01-28T09:14:01.383Z,2724.00
2023-01-28T09:15:01.447Z,3100.00
2023-01-28T09:16:01.564Z,2872.00
2023-01-28T09:17:01.553Z,2588.00
2023-01-28T09:18:01.557Z,2676.00
2023-01-28T09:19:01.562Z,2692.00
2023-01-28T09:20:01.640Z,2808.00
2023-01-28T09:21:01.648Z,2828.00
2023-01-28T09:22:01.695Z,3072.00
2023-01-28T09:23:01.742Z,2912.00
2023-01-28T09:24:01.800Z,3024.00
2023-01-28T09:25:01.898Z,2524.00
2023-01-28T09:26:01.897Z,2172.00
2023-01-28T09:27:01.895Z,1928.00
2023-01-28T09:28:01.917Z,1872.00
2023-01-28T09:29:01.935Z,1876.00
2023-01-28T09:30:01.960Z,1984.00
2023-01-28T09:31:02.052Z,1904.00
2023-01-28T09:32:02.009Z,1768.00
2023-01-28T09:33:02.032Z,1696.00
2023-01-28T09:34:02.009Z,1692.00
2023-01-28T09:35:02.062Z,1764.00
2023-01-28T09:36:02.087Z,1788.00
2023-01-28T09:37:02.110Z,1764.00
2023-01-28T09:38:02.125Z,1712.00
2023-01-28T09:39:03.252Z,1876.00
2023-01-28T09:40:02.157Z,1956.00
2023-01-28T09:41:02.187Z,2148.00
2023-01-28T09:42:02.222Z,2220.00
2023-01-28T09:43:02.243Z,2104.00
2023-01-28T09:44:02.282Z,1928.00
2023-01-28T09:45:02.273Z,2024.00
2023-01-28T09:46:02.347Z,2040.00
2023-01-28T09:47:02.382Z,2184.00
2023-01-28T09:48:02.381Z,2388.00
2023-01-28T09:49:02.351Z,2548.00
2023-01-28T09:50:02.375Z,2564.00
2023-01-28T09:51:02.459Z,2620.00
2023-01-28T09:52:02.397Z,2956.00
2023-01-28T09:53:02.473Z,3180.00
2023-01-28T09:54:02.451Z,3044.00
2023-01-28T09:55:02.452Z,2804.00
2023-01-28T09:56:02.464Z,2608.00
2023-01-28T09:57:02.526Z,2244.00
2023-01-28T09:58:02.601Z,2104.00
2023-01-28T09:59:02.592Z,2128.00
2023-01-28T10:00:02.624Z,2072.00
2023-01-28T10:01:02.715Z,2480.00
2023-01-28T10:02:02.705Z,2740.00
2023-01-28T10:03:02.724Z,3192.00
2023-01-28T10:04:02.800Z,3644.00
2023-01-28T10:05:02.794Z,3852.00
2023-01-28T10:06:02.823Z,3924.00
2023-01-28T10:07:02.885Z,3692.00
2023-01-28T10:08:02.924Z,4036.00
2023-01-28T10:09:02.952Z,4036.00
2023-01-28T10:10:02.972Z,4204.00
2023-01-28T10:11:03.014Z,4008.00
2023-01-28T10:12:02.973Z,3892.00
2023-01-28T10:13:03.001Z,3728.00
2023-01-28T10:14:03.066Z,3564.00
2023-01-28T10:15:03.114Z,3736.00
2023-01-28T10:16:03.144Z,3740.00
2023-01-28T10:17:03.220Z,3752.00
2023-01-28T10:18:15.963Z,4120.00
2023-01-28T10:19:03.244Z,4168.00
2023-01-28T10:20:03.294Z,3920.00
2023-01-28T10:21:03.343Z,3852.00
2023-01-28T10:22:03.361Z,3936.00
2023-01-28T10:23:03.408Z,3864.00
2023-01-28T10:24:03.487Z,3724.00
2023-01-28T10:25:03.520Z,3824.00
2023-01-28T10:26:03.566Z,3936.00
2023-01-28T10:27:03.607Z,3708.00
2023-01-28T10:28:03.616Z,3856.00
2023-01-28T10:29:03.636Z,4032.00
2023-01-28T10:30:03.704Z,4264.00
2023-01-28T10:31:03.915Z,4008.00
2023-01-28T10:32:03.838Z,4108.00
2023-01-28T10:33:03.784Z,4176.00
2023-01-28T10:34:03.788Z,4268.00
2023-01-28T10:35:03.816Z,4204.00
2023-01-28T10:36:03.818Z,4316.00
2023-01-28T10:37:03.888Z,4596.00
2023-01-28T10:38:03.911Z,4792.00
2023-01-28T10:39:03.958Z,4788.00
2023-01-28T10:40:04.032Z,4840.00
2023-01-28T10:41:04.052Z,4752.00
2023-01-28T10:42:04.109Z,4392.00
2023-01-28T10:43:04.148Z,4800.00
2023-01-28T10:44:04.160Z,4772.00
2023-01-28T10:45:04.200Z,4760.00
2023-01-28T10:46:04.255Z,4416.00
2023-01-28T10:47:04.199Z,4360.00
2023-01-28T10:48:04.179Z,3972.00
2023-01-28T10:49:04.210Z,3816.00
2023-01-28T10:50:04.237Z,3908.00
2023-01-28T10:51:04.274Z,3820.00
2023-01-28T10:52:04.337Z,3820.00
2023-01-28T10:53:04.367Z,3636.00
2023-01-28T10:54:04.348Z,3612.00
2023-01-28T10:55:04.386Z,3468.00
2023-01-28T10:56:04.416Z,3164.00
2023-01-28T10:57:04.428Z,3156.00
2023-01-28T10:58:04.475Z,3300.00
2023-01-28T10:59:04.522Z,3448.00
2023-01-28T11:00:04.561Z,3548.00
2023-01-28T11:01:04.654Z,3428.00
2023-01-28T11:02:04.717Z,3468.00
2023-01-28T11:03:04.675Z,3836.00
2023-01-28T11:04:04.693Z,4044.00
2023-01-28T11:05:04.972Z,3980.00
2023-01-28T11:06:04.754Z,3976.00
2023-01-28T11:07:04.786Z,3748.00
2023-01-28T11:08:04.933Z,3708.00
2023-01-28T11:09:04.883Z,3916.00
2023-01-28T11:10:04.901Z,4112.00
2023-01-28T11:11:04.973Z,4012.00
2023-01-28T11:12:05.007Z,4256.00
2023-01-28T11:13:05.049Z,4428.00
2023-01-28T11:14:05.085Z,4252.00
2023-01-28T11:15:05.116Z,4268.00
2023-01-28T11:16:05.125Z,4376.00
2023-01-28T11:17:05.135Z,4284.00
2023-01-28T11:18:05.165Z,4336.00
2023-01-28T11:19:05.187Z,4360.00
2023-01-28T11:20:05.284Z,4520.00
2023-01-28T11:21:05.258Z,4520.00
2023-01-28T11:22:05.337Z,4536.00
2023-01-28T11:23:05.376Z,4776.00
2023-01-28T11:24:05.438Z,5160.00
2023-01-28T11:25:05.408Z,5536.00
2023-01-28T11:26:05.435Z,5664.00
2023-01-28T11:27:05.456Z,5644.00
2023-01-28T11:28:05.468Z,5536.00
2023-01-28T11:29:05.560Z,5404.00
2023-01-28T11:30:05.558Z,5224.00
2023-01-28T11:31:05.562Z,5608.00
2023-01-28T11:32:05.527Z,5508.00
2023-01-28T11:33:05.568Z,4972.00
2023-01-28T11:34:05.614Z,4996.00
2023-01-28T11:35:05.648Z,5696.00
2023-01-28T11:36:05.699Z,5968.00
2023-01-28T11:37:05.744Z,6168.00
2023-01-28T11:38:05.789Z,5984.00
2023-01-28T11:39:05.801Z,5844.00
2023-01-28T11:40:05.820Z,6456.00
2023-01-28T11:41:05.839Z,8180.00
2023-01-28T11:42:05.866Z,6452.00
2023-01-28T11:43:05.880Z,10048.00
2023-01-28T11:44:05.870Z,9100.00
2023-01-28T11:45:05.870Z,9524.00
2023-01-28T11:46:05.972Z,11432.00
2023-01-28T11:47:05.961Z,11512.00
2023-01-28T11:48:05.984Z,11056.00
2023-01-28T11:49:06.017Z,10780.00
2023-01-28T11:50:06.000Z,11048.00
2023-01-28T11:51:06.023Z,10100.00
2023-01-28T11:52:06.083Z,10536.00
2023-01-28T11:53:07.080Z,10996.00
2023-01-28T11:54:06.143Z,10604.00
2023-01-28T11:55:06.275Z,10388.00
2023-01-28T11:56:06.304Z,10844.00
2023-01-28T11:57:06.306Z,11236.00
2023-01-28T11:58:06.322Z,11072.00
2023-01-28T11:59:06.351Z,11060.00
2023-01-28T12:00:06.352Z,11248.00
2023-01-28T12:01:06.383Z,11012.00
2023-01-28T12:02:06.402Z,11476.00
2023-01-28T12:03:06.421Z,11536.00
2023-01-28T12:04:06.432Z,11632.00
2023-01-28T12:05:06.444Z,11564.00
2023-01-28T12:06:06.454Z,10644.00
2023-01-28T12:07:06.433Z,11576.00
2023-01-28T12:08:06.416Z,11300.00
2023-01-28T12:09:06.469Z,10904.00
2023-01-28T12:10:06.484Z,10964.00
2023-01-28T12:11:06.525Z,11116.00
2023-01-28T12:12:06.575Z,11224.00
2023-01-28T12:13:06.580Z,10896.00
2023-01-28T12:14:06.629Z,11008.00
2023-01-28T12:15:07.588Z,10648.00
2023-01-28T12:16:06.800Z,9988.00
2023-01-28T12:17:06.821Z,10220.00
2023-01-28T12:18:06.860Z,9948.00
2023-01-28T12:19:06.947Z,10040.00
2023-01-28T12:20:06.942Z,9940.00
2023-01-28T12:21:06.967Z,10000.00
2023-01-28T12:22:06.989Z,9608.00
2023-01-28T12:23:07.000Z,9888.00
2023-01-28T12:24:07.097Z,9608.00
2023-01-28T12:25:07.030Z,10108.00
2023-01-28T12:26:07.058Z,9868.00
2023-01-28T12:27:07.060Z,9916.00
2023-01-28T12:28:07.116Z,9800.00
2023-01-28T12:29:07.151Z,9668.00
2023-01-28T12:30:07.196Z,9480.00
2023-01-28T12:31:08.048Z,9820.00
2023-01-28T12:32:07.343Z,9340.00
2023-01-28T12:33:07.291Z,9792.00
2023-01-28T12:34:07.401Z,9452.00
2023-01-28T12:35:07.411Z,9512.00
2023-01-28T12:36:07.552Z,9300.00
2023-01-28T12:37:07.498Z,9492.00
2023-01-28T12:38:07.569Z,9528.00
2023-01-28T12:39:07.616Z,9552.00
2023-01-28T12:40:07.641Z,9140.00
2023-01-28T12:41:07.685Z,9252.00
2023-01-28T12:42:07.762Z,9288.00
2023-01-28T12:43:07.763Z,9360.00
2023-01-28T12:44:07.804Z,7432.00
2023-01-28T12:45:07.834Z,7684.00